sensor_id;sensor_type;location;lat;lon;timestamp;temperature;humidity
21678;DHT22;11000;50.360;7.582;2023-04-24T00:01:16;12.60;99.90
21678;DHT22;11000;50.360;7.582;2023-04-24T00:03:37;12.60;99.90
21678;DHT22;11000;50.360;7.582;2023-04-24T00:05:59;12.60;99.90
21678;DHT22;11000;50.360;7.582;2023-04-24T00:08:21;12.60;99.90
21678;DHT22;11000;50.360;7.582;2023-04-24T00:10:42;12.60;99.90
21678;DHT22;11000;50.360;7.582;2023-04-24T00:13:03;12.60;99.90
21678;DHT22;11000;50.360;7.582;2023-04-24T00:15:24;12.60;99.90
21678;DHT22;11000;50.360;7.582;2023-04-24T00:17:44;12.60;99.90
21678;DHT22;11000;50.360;7.582;2023-04-24T00:20:05;12.60;99.90
21678;DHT22;11000;50.360;7.582;2023-04-24T00:22:28;12.70;99.90
21678;DHT22;11000;50.360;7.582;2023-04-24T00:24:48;12.70;99.90
21678;DHT22;11000;50.360;7.582;2023-04-24T00:27:09;12.70;99.90
21678;DHT22;11000;50.360;7.582;2023-04-24T00:29:29;12.70;99.90
21678;DHT22;11000;50.360;7.582;2023-04-24T00:31:50;12.60;99.90
21678;DHT22;11000;50.360;7.582;2023-04-24T00:34:11;12.60;99.90
21678;DHT22;11000;50.360;7.582;2023-04-24T00:36:32;12.70;99.90
21678;DHT22;11000;50.360;7.582;2023-04-24T00:38:53;12.70;99.90
21678;DHT22;11000;50.360;7.582;2023-04-24T00:41:14;12.70;99.90
21678;DHT22;11000;50.360;7.582;2023-04-24T00:43:34;12.70;99.90
21678;DHT22;11000;50.360;7.582;2023-04-24T00:45:55;12.70;99.90
21678;DHT22;11000;50.360;7.582;2023-04-24T00:48:16;12.70;99.90
21678;DHT22;11000;50.360;7.582;2023-04-24T00:50:38;12.70;99.90
21678;DHT22;11000;50.360;7.582;2023-04-24T00:52:58;12.70;99.90
21678;DHT22;11000;50.360;7.582;2023-04-24T00:55:19;12.70;99.90
21678;DHT22;11000;50.360;7.582;2023-04-24T00:57:39;12.70;99.90
21678;DHT22;11000;50.360;7.582;2023-04-24T01:00:00;12.60;99.90
21678;DHT22;11000;50.360;7.582;2023-04-24T01:02:21;12.60;99.90
21678;DHT22;11000;50.360;7.582;2023-04-24T01:04:43;12.60;99.90
21678;DHT22;11000;50.360;7.582;2023-04-24T01:07:04;12.60;99.90
21678;DHT22;11000;50.360;7.582;2023-04-24T01:09:30;12.50;99.90
21678;DHT22;11000;50.360;7.582;2023-04-24T01:11:50;12.50;99.90
21678;DHT22;11000;50.360;7.582;2023-04-24T01:14:11;12.60;99.90
21678;DHT22;11000;50.360;7.582;2023-04-24T01:16:32;12.50;99.90
21678;DHT22;11000;50.360;7.582;2023-04-24T01:18:52;12.50;99.90
21678;DHT22;11000;50.360;7.582;2023-04-24T01:21:14;12.50;99.90
21678;DHT22;11000;50.360;7.582;2023-04-24T01:23:36;12.40;99.90
21678;DHT22;11000;50.360;7.582;2023-04-24T01:25:57;12.40;99.90
21678;DHT22;11000;50.360;7.582;2023-04-24T01:28:18;12.40;99.90
21678;DHT22;11000;50.360;7.582;2023-04-24T01:30:38;12.40;99.90
21678;DHT22;11000;50.360;7.582;2023-04-24T01:32:59;12.40;99.90
21678;DHT22;11000;50.360;7.582;2023-04-24T01:35:20;12.30;99.90
21678;DHT22;11000;50.360;7.582;2023-04-24T01:37:40;12.40;99.90
21678;DHT22;11000;50.360;7.582;2023-04-24T01:40:01;12.30;99.90
21678;DHT22;11000;50.360;7.582;2023-04-24T01:42:21;12.30;99.90
21678;DHT22;11000;50.360;7.582;2023-04-24T01:44:42;12.30;99.90
21678;DHT22;11000;50.360;7.582;2023-04-24T01:47:04;12.20;99.90
21678;DHT22;11000;50.360;7.582;2023-04-24T01:49:24;12.20;99.90
21678;DHT22;11000;50.360;7.582;2023-04-24T01:51:45;12.10;99.90
21678;DHT22;11000;50.360;7.582;2023-04-24T01:54:05;12.10;99.90
21678;DHT22;11000;50.360;7.582;2023-04-24T01:56:29;12.10;99.90
21678;DHT22;11000;50.360;7.582;2023-04-24T01:58:50;12.10;99.90
21678;DHT22;11000;50.360;7.582;2023-04-24T02:01:19;12.00;99.90
21678;DHT22;11000;50.360;7.582;2023-04-24T02:03:40;12.00;99.90
21678;DHT22;11000;50.360;7.582;2023-04-24T02:06:00;12.00;99.90
21678;DHT22;11000;50.360;7.582;2023-04-24T02:08:21;12.00;99.90
21678;DHT22;11000;50.360;7.582;2023-04-24T02:10:41;12.00;99.90
21678;DHT22;11000;50.360;7.582;2023-04-24T02:13:03;12.00;99.90
21678;DHT22;11000;50.360;7.582;2023-04-24T02:15:24;11.90;99.90
21678;DHT22;11000;50.360;7.582;2023-04-24T02:17:46;11.90;99.90
21678;DHT22;11000;50.360;7.582;2023-04-24T02:20:07;11.90;99.90
21678;DHT22;11000;50.360;7.582;2023-04-24T02:22:28;11.90;99.90
21678;DHT22;11000;50.360;7.582;2023-04-24T02:24:48;11.90;99.90
21678;DHT22;11000;50.360;7.582;2023-04-24T02:27:09;11.80;99.90
21678;DHT22;11000;50.360;7.582;2023-04-24T02:29:30;11.80;99.90
21678;DHT22;11000;50.360;7.582;2023-04-24T02:31:50;11.90;99.90
21678;DHT22;11000;50.360;7.582;2023-04-24T02:34:11;11.90;99.90
21678;DHT22;11000;50.360;7.582;2023-04-24T02:36:31;11.80;99.90
21678;DHT22;11000;50.360;7.582;2023-04-24T02:38:52;11.90;99.90
21678;DHT22;11000;50.360;7.582;2023-04-24T02:41:12;11.80;99.90
21678;DHT22;11000;50.360;7.582;2023-04-24T02:43:33;11.80;99.90
21678;DHT22;11000;50.360;7.582;2023-04-24T02:45:53;11.80;99.90
21678;DHT22;11000;50.360;7.582;2023-04-24T02:48:14;11.80;99.90
21678;DHT22;11000;50.360;7.582;2023-04-24T02:50:35;11.80;99.90
21678;DHT22;11000;50.360;7.582;2023-04-24T02:52:55;11.80;99.90
21678;DHT22;11000;50.360;7.582;2023-04-24T02:55:16;11.80;99.90
21678;DHT22;11000;50.360;7.582;2023-04-24T02:57:36;11.70;99.90
21678;DHT22;11000;50.360;7.582;2023-04-24T02:59:57;11.70;99.90
21678;DHT22;11000;50.360;7.582;2023-04-24T03:02:17;11.70;99.90
21678;DHT22;11000;50.360;7.582;2023-04-24T03:04:38;11.60;99.90
21678;DHT22;11000;50.360;7.582;2023-04-24T03:07:00;11.50;99.90
21678;DHT22;11000;50.360;7.582;2023-04-24T03:09:21;11.50;99.90
21678;DHT22;11000;50.360;7.582;2023-04-24T03:11:42;11.40;99.90
21678;DHT22;11000;50.360;7.582;2023-04-24T03:14:02;11.40;99.90
21678;DHT22;11000;50.360;7.582;2023-04-24T03:16:23;11.30;99.90
21678;DHT22;11000;50.360;7.582;2023-04-24T03:18:43;11.30;99.90
21678;DHT22;11000;50.360;7.582;2023-04-24T03:21:04;11.30;99.90
21678;DHT22;11000;50.360;7.582;2023-04-24T03:23:24;11.30;99.90
21678;DHT22;11000;50.360;7.582;2023-04-24T03:25:45;11.20;99.90
21678;DHT22;11000;50.360;7.582;2023-04-24T03:28:05;11.10;99.90
21678;DHT22;11000;50.360;7.582;2023-04-24T03:30:26;11.00;99.90
21678;DHT22;11000;50.360;7.582;2023-04-24T03:32:46;11.00;99.90
21678;DHT22;11000;50.360;7.582;2023-04-24T03:35:07;11.00;99.90
21678;DHT22;11000;50.360;7.582;2023-04-24T03:37:29;10.90;99.90
21678;DHT22;11000;50.360;7.582;2023-04-24T03:39:49;10.80;99.90
21678;DHT22;11000;50.360;7.582;2023-04-24T03:42:10;10.80;99.90
21678;DHT22;11000;50.360;7.582;2023-04-24T03:44:30;10.80;99.90
21678;DHT22;11000;50.360;7.582;2023-04-24T03:46:51;10.70;99.90
21678;DHT22;11000;50.360;7.582;2023-04-24T03:49:11;10.60;99.90
21678;DHT22;11000;50.360;7.582;2023-04-24T03:51:32;10.60;99.90
21678;DHT22;11000;50.360;7.582;2023-04-24T03:53:53;10.60;99.90
21678;DHT22;11000;50.360;7.582;2023-04-24T03:56:13;10.50;99.90
21678;DHT22;11000;50.360;7.582;2023-04-24T03:58:34;10.40;99.90
21678;DHT22;11000;50.360;7.582;2023-04-24T04:00:54;10.40;99.90
21678;DHT22;11000;50.360;7.582;2023-04-24T04:03:17;10.40;99.90
21678;DHT22;11000;50.360;7.582;2023-04-24T04:05:37;10.30;99.90
21678;DHT22;11000;50.360;7.582;2023-04-24T04:07:58;10.30;99.90
21678;DHT22;11000;50.360;7.582;2023-04-24T04:10:18;10.30;99.90
21678;DHT22;11000;50.360;7.582;2023-04-24T04:12:39;10.20;99.90
21678;DHT22;11000;50.360;7.582;2023-04-24T04:14:59;10.20;99.90
21678;DHT22;11000;50.360;7.582;2023-04-24T04:17:20;10.10;99.90
21678;DHT22;11000;50.360;7.582;2023-04-24T04:19:41;10.10;99.90
21678;DHT22;11000;50.360;7.582;2023-04-24T04:22:02;10.00;99.90
21678;DHT22;11000;50.360;7.582;2023-04-24T04:24:22;10.10;99.90
21678;DHT22;11000;50.360;7.582;2023-04-24T04:26:44;10.00;99.90
21678;DHT22;11000;50.360;7.582;2023-04-24T04:29:07;10.10;99.90
21678;DHT22;11000;50.360;7.582;2023-04-24T04:31:27;10.10;99.90
21678;DHT22;11000;50.360;7.582;2023-04-24T04:33:48;10.00;99.90
21678;DHT22;11000;50.360;7.582;2023-04-24T04:36:08;10.00;99.90
21678;DHT22;11000;50.360;7.582;2023-04-24T04:38:29;10.00;99.90
21678;DHT22;11000;50.360;7.582;2023-04-24T04:40:50;10.00;99.90
21678;DHT22;11000;50.360;7.582;2023-04-24T04:43:12;10.00;99.90
21678;DHT22;11000;50.360;7.582;2023-04-24T04:45:37;10.00;99.90
21678;DHT22;11000;50.360;7.582;2023-04-24T04:47:59;10.10;99.90
21678;DHT22;11000;50.360;7.582;2023-04-24T04:50:21;10.10;99.90
21678;DHT22;11000;50.360;7.582;2023-04-24T04:52:43;10.10;99.90
21678;DHT22;11000;50.360;7.582;2023-04-24T04:55:11;10.10;99.90
21678;DHT22;11000;50.360;7.582;2023-04-24T04:57:36;10.00;99.90
21678;DHT22;11000;50.360;7.582;2023-04-24T04:59:57;10.10;99.90
21678;DHT22;11000;50.360;7.582;2023-04-24T05:02:18;10.10;99.90
21678;DHT22;11000;50.360;7.582;2023-04-24T05:04:40;10.00;99.90
21678;DHT22;11000;50.360;7.582;2023-04-24T05:07:01;9.90;99.90
21678;DHT22;11000;50.360;7.582;2023-04-24T05:09:22;10.00;99.90
21678;DHT22;11000;50.360;7.582;2023-04-24T05:11:42;10.00;99.90
21678;DHT22;11000;50.360;7.582;2023-04-24T05:14:03;10.00;99.90
21678;DHT22;11000;50.360;7.582;2023-04-24T05:16:23;10.00;99.90
21678;DHT22;11000;50.360;7.582;2023-04-24T05:18:44;10.00;99.90
21678;DHT22;11000;50.360;7.582;2023-04-24T05:21:05;10.00;99.90
21678;DHT22;11000;50.360;7.582;2023-04-24T05:23:25;10.10;99.90
21678;DHT22;11000;50.360;7.582;2023-04-24T05:25:46;10.10;99.90
21678;DHT22;11000;50.360;7.582;2023-04-24T05:28:07;10.20;99.90
21678;DHT22;11000;50.360;7.582;2023-04-24T05:30:29;10.20;99.90
21678;DHT22;11000;50.360;7.582;2023-04-24T05:32:50;10.30;99.90
21678;DHT22;11000;50.360;7.582;2023-04-24T05:35:12;10.30;99.90
21678;DHT22;11000;50.360;7.582;2023-04-24T05:37:39;10.40;99.90
21678;DHT22;11000;50.360;7.582;2023-04-24T05:40:01;10.40;99.90
21678;DHT22;11000;50.360;7.582;2023-04-24T05:42:25;10.40;99.90
21678;DHT22;11000;50.360;7.582;2023-04-24T05:44:46;10.30;99.90
21678;DHT22;11000;50.360;7.582;2023-04-24T05:47:07;10.40;99.90
21678;DHT22;11000;50.360;7.582;2023-04-24T05:49:29;10.40;99.90
21678;DHT22;11000;50.360;7.582;2023-04-24T05:51:54;10.50;99.90
21678;DHT22;11000;50.360;7.582;2023-04-24T05:54:14;10.50;99.90
21678;DHT22;11000;50.360;7.582;2023-04-24T05:56:35;10.50;99.90
21678;DHT22;11000;50.360;7.582;2023-04-24T05:58:56;10.50;99.90
21678;DHT22;11000;50.360;7.582;2023-04-24T06:01:16;10.60;99.90
21678;DHT22;11000;50.360;7.582;2023-04-24T06:03:38;10.50;99.90
21678;DHT22;11000;50.360;7.582;2023-04-24T06:05:59;10.50;99.90
21678;DHT22;11000;50.360;7.582;2023-04-24T06:08:21;10.50;99.90
21678;DHT22;11000;50.360;7.582;2023-04-24T06:10:42;10.50;99.90
21678;DHT22;11000;50.360;7.582;2023-04-24T06:13:02;10.60;99.90
21678;DHT22;11000;50.360;7.582;2023-04-24T06:15:23;10.70;99.90
21678;DHT22;11000;50.360;7.582;2023-04-24T06:17:47;10.60;99.90
21678;DHT22;11000;50.360;7.582;2023-04-24T06:20:08;10.70;99.90
21678;DHT22;11000;50.360;7.582;2023-04-24T06:22:31;10.70;99.90
21678;DHT22;11000;50.360;7.582;2023-04-24T06:24:52;10.80;99.90
21678;DHT22;11000;50.360;7.582;2023-04-24T06:27:12;10.90;99.90
21678;DHT22;11000;50.360;7.582;2023-04-24T06:29:34;10.90;99.90
21678;DHT22;11000;50.360;7.582;2023-04-24T06:31:55;10.90;99.90
21678;DHT22;11000;50.360;7.582;2023-04-24T06:34:16;11.40;99.90
21678;DHT22;11000;50.360;7.582;2023-04-24T06:36:36;11.70;99.90
21678;DHT22;11000;50.360;7.582;2023-04-24T06:38:57;12.40;99.90
21678;DHT22;11000;50.360;7.582;2023-04-24T06:41:17;12.70;99.90
21678;DHT22;11000;50.360;7.582;2023-04-24T06:43:40;12.70;99.90
21678;DHT22;11000;50.360;7.582;2023-04-24T06:46:01;12.30;99.90
21678;DHT22;11000;50.360;7.582;2023-04-24T06:48:24;12.00;99.90
21678;DHT22;11000;50.360;7.582;2023-04-24T06:50:45;11.80;99.90
21678;DHT22;11000;50.360;7.582;2023-04-24T06:53:07;11.70;99.90
21678;DHT22;11000;50.360;7.582;2023-04-24T06:55:28;11.60;99.90
21678;DHT22;11000;50.360;7.582;2023-04-24T06:57:48;11.60;99.90
21678;DHT22;11000;50.360;7.582;2023-04-24T07:00:10;11.50;99.90
21678;DHT22;11000;50.360;7.582;2023-04-24T07:02:31;11.50;99.90
21678;DHT22;11000;50.360;7.582;2023-04-24T07:04:52;11.50;99.90
21678;DHT22;11000;50.360;7.582;2023-04-24T07:07:13;11.40;99.90
21678;DHT22;11000;50.360;7.582;2023-04-24T07:09:34;11.30;99.90
21678;DHT22;11000;50.360;7.582;2023-04-24T07:11:58;11.30;99.90
21678;DHT22;11000;50.360;7.582;2023-04-24T07:14:19;11.30;99.90
21678;DHT22;11000;50.360;7.582;2023-04-24T07:16:41;11.30;99.90
21678;DHT22;11000;50.360;7.582;2023-04-24T07:19:02;11.40;99.90
21678;DHT22;11000;50.360;7.582;2023-04-24T07:21:22;11.40;99.90
21678;DHT22;11000;50.360;7.582;2023-04-24T07:23:43;11.50;99.90
21678;DHT22;11000;50.360;7.582;2023-04-24T07:26:04;11.40;99.90
21678;DHT22;11000;50.360;7.582;2023-04-24T07:28:24;11.40;99.90
21678;DHT22;11000;50.360;7.582;2023-04-24T07:30:45;11.40;99.90
21678;DHT22;11000;50.360;7.582;2023-04-24T07:33:06;11.40;99.90
21678;DHT22;11000;50.360;7.582;2023-04-24T07:35:27;11.40;99.90
21678;DHT22;11000;50.360;7.582;2023-04-24T07:37:48;11.40;99.90
21678;DHT22;11000;50.360;7.582;2023-04-24T07:40:08;11.40;99.90
21678;DHT22;11000;50.360;7.582;2023-04-24T07:42:29;11.50;99.90
21678;DHT22;11000;50.360;7.582;2023-04-24T07:44:51;11.60;99.90
21678;DHT22;11000;50.360;7.582;2023-04-24T07:47:11;11.70;99.90
21678;DHT22;11000;50.360;7.582;2023-04-24T07:49:32;11.90;99.90
21678;DHT22;11000;50.360;7.582;2023-04-24T07:51:54;12.00;99.90
21678;DHT22;11000;50.360;7.582;2023-04-24T07:54:15;12.10;99.90
21678;DHT22;11000;50.360;7.582;2023-04-24T07:56:36;12.20;99.90
21678;DHT22;11000;50.360;7.582;2023-04-24T07:58:59;12.20;99.90
21678;DHT22;11000;50.360;7.582;2023-04-24T08:01:20;12.30;99.90
21678;DHT22;11000;50.360;7.582;2023-04-24T08:03:40;12.30;99.90
21678;DHT22;11000;50.360;7.582;2023-04-24T08:06:01;12.20;99.90
21678;DHT22;11000;50.360;7.582;2023-04-24T08:08:22;12.20;99.90
21678;DHT22;11000;50.360;7.582;2023-04-24T08:10:43;12.20;99.90
21678;DHT22;11000;50.360;7.582;2023-04-24T08:13:03;12.20;99.90
21678;DHT22;11000;50.360;7.582;2023-04-24T08:15:24;12.10;99.90
21678;DHT22;11000;50.360;7.582;2023-04-24T08:17:45;12.20;99.90
21678;DHT22;11000;50.360;7.582;2023-04-24T08:20:06;12.20;99.90
21678;DHT22;11000;50.360;7.582;2023-04-24T08:22:30;12.10;99.90
21678;DHT22;11000;50.360;7.582;2023-04-24T08:24:51;12.10;99.90
21678;DHT22;11000;50.360;7.582;2023-04-24T08:27:12;12.00;99.90
21678;DHT22;11000;50.360;7.582;2023-04-24T08:29:32;11.90;99.90
21678;DHT22;11000;50.360;7.582;2023-04-24T08:31:53;11.90;99.90
21678;DHT22;11000;50.360;7.582;2023-04-24T08:34:15;11.80;99.90
21678;DHT22;11000;50.360;7.582;2023-04-24T08:36:36;11.80;99.90
21678;DHT22;11000;50.360;7.582;2023-04-24T08:38:57;11.80;99.90
21678;DHT22;11000;50.360;7.582;2023-04-24T08:41:19;11.70;99.90
21678;DHT22;11000;50.360;7.582;2023-04-24T08:43:40;11.70;99.90
21678;DHT22;11000;50.360;7.582;2023-04-24T08:46:01;11.70;99.90
21678;DHT22;11000;50.360;7.582;2023-04-24T08:48:23;11.80;99.90
21678;DHT22;11000;50.360;7.582;2023-04-24T08:50:45;11.80;99.90
21678;DHT22;11000;50.360;7.582;2023-04-24T08:53:07;11.80;99.90
21678;DHT22;11000;50.360;7.582;2023-04-24T08:55:29;11.80;99.90
21678;DHT22;11000;50.360;7.582;2023-04-24T08:57:51;11.80;99.90
21678;DHT22;11000;50.360;7.582;2023-04-24T09:00:16;11.80;99.90
21678;DHT22;11000;50.360;7.582;2023-04-24T09:02:41;11.80;99.90
21678;DHT22;11000;50.360;7.582;2023-04-24T09:05:04;11.80;99.90
21678;DHT22;11000;50.360;7.582;2023-04-24T09:07:27;11.70;99.90
21678;DHT22;11000;50.360;7.582;2023-04-24T09:09:50;11.60;99.90
21678;DHT22;11000;50.360;7.582;2023-04-24T09:12:11;11.50;99.90
21678;DHT22;11000;50.360;7.582;2023-04-24T09:14:33;11.60;99.90
21678;DHT22;11000;50.360;7.582;2023-04-24T09:16:53;11.60;99.90
21678;DHT22;11000;50.360;7.582;2023-04-24T09:19:14;11.70;99.90
21678;DHT22;11000;50.360;7.582;2023-04-24T09:21:35;11.80;99.90
21678;DHT22;11000;50.360;7.582;2023-04-24T09:24:04;11.90;99.90
21678;DHT22;11000;50.360;7.582;2023-04-24T09:26:25;11.80;99.90
21678;DHT22;11000;50.360;7.582;2023-04-24T09:28:47;11.80;99.90
21678;DHT22;11000;50.360;7.582;2023-04-24T09:31:15;11.70;99.90
21678;DHT22;11000;50.360;7.582;2023-04-24T09:33:38;11.60;99.90
21678;DHT22;11000;50.360;7.582;2023-04-24T09:35:58;11.60;99.90
21678;DHT22;11000;50.360;7.582;2023-04-24T09:38:34;11.60;99.90
21678;DHT22;11000;50.360;7.582;2023-04-24T09:40:54;11.70;99.90
21678;DHT22;11000;50.360;7.582;2023-04-24T09:43:15;11.70;99.90
21678;DHT22;11000;50.360;7.582;2023-04-24T09:45:37;11.70;99.90
21678;DHT22;11000;50.360;7.582;2023-04-24T09:47:58;11.80;99.90
21678;DHT22;11000;50.360;7.582;2023-04-24T09:50:18;11.70;99.90
21678;DHT22;11000;50.360;7.582;2023-04-24T09:52:59;11.80;99.90
21678;DHT22;11000;50.360;7.582;2023-04-24T09:55:21;11.80;99.90
21678;DHT22;11000;50.360;7.582;2023-04-24T09:57:55;11.80;99.90
21678;DHT22;11000;50.360;7.582;2023-04-24T10:02:42;11.90;99.90
21678;DHT22;11000;50.360;7.582;2023-04-24T10:05:04;11.90;99.90
21678;DHT22;11000;50.360;7.582;2023-04-24T10:07:28;12.00;99.90
21678;DHT22;11000;50.360;7.582;2023-04-24T10:09:49;12.00;99.90
21678;DHT22;11000;50.360;7.582;2023-04-24T10:12:11;12.00;99.90
21678;DHT22;11000;50.360;7.582;2023-04-24T10:14:33;12.00;99.90
21678;DHT22;11000;50.360;7.582;2023-04-24T10:16:54;12.00;99.90
21678;DHT22;11000;50.360;7.582;2023-04-24T10:19:17;11.90;99.90
21678;DHT22;11000;50.360;7.582;2023-04-24T10:21:40;11.90;99.90
21678;DHT22;11000;50.360;7.582;2023-04-24T10:24:03;11.90;99.90
21678;DHT22;11000;50.360;7.582;2023-04-24T10:26:25;12.00;99.90
21678;DHT22;11000;50.360;7.582;2023-04-24T10:28:47;12.00;99.90
21678;DHT22;11000;50.360;7.582;2023-04-24T10:31:10;12.10;99.90
21678;DHT22;11000;50.360;7.582;2023-04-24T10:33:31;12.10;99.90
21678;DHT22;11000;50.360;7.582;2023-04-24T10:35:52;12.20;99.90
21678;DHT22;11000;50.360;7.582;2023-04-24T10:38:15;12.20;99.90
21678;DHT22;11000;50.360;7.582;2023-04-24T10:40:37;12.20;99.90
21678;DHT22;11000;50.360;7.582;2023-04-24T10:42:57;12.30;99.90
21678;DHT22;11000;50.360;7.582;2023-04-24T10:45:20;12.40;99.90
21678;DHT22;11000;50.360;7.582;2023-04-24T10:47:42;12.30;99.90
21678;DHT22;11000;50.360;7.582;2023-04-24T10:50:10;12.30;99.90
21678;DHT22;11000;50.360;7.582;2023-04-24T10:52:44;12.30;99.90
21678;DHT22;11000;50.360;7.582;2023-04-24T10:55:06;12.40;99.90
21678;DHT22;11000;50.360;7.582;2023-04-24T10:57:27;12.30;99.90
21678;DHT22;11000;50.360;7.582;2023-04-24T11:00:14;12.20;99.90
21678;DHT22;11000;50.360;7.582;2023-04-24T11:02:39;12.20;99.90
21678;DHT22;11000;50.360;7.582;2023-04-24T11:05:04;12.30;99.90
21678;DHT22;11000;50.360;7.582;2023-04-24T11:07:25;12.30;99.90
21678;DHT22;11000;50.360;7.582;2023-04-24T11:09:46;12.20;99.90
21678;DHT22;11000;50.360;7.582;2023-04-24T11:12:17;12.30;99.90
21678;DHT22;11000;50.360;7.582;2023-04-24T11:17:30;12.10;99.90
21678;DHT22;11000;50.360;7.582;2023-04-24T11:19:51;12.10;99.90
21678;DHT22;11000;50.360;7.582;2023-04-24T11:22:14;12.10;99.90
21678;DHT22;11000;50.360;7.582;2023-04-24T11:24:39;12.20;99.90
21678;DHT22;11000;50.360;7.582;2023-04-24T11:32:22;11.90;99.90
21678;DHT22;11000;50.360;7.582;2023-04-24T11:34:46;11.90;99.90
21678;DHT22;11000;50.360;7.582;2023-04-24T11:37:07;11.80;99.90
21678;DHT22;11000;50.360;7.582;2023-04-24T11:39:27;11.60;99.90
21678;DHT22;11000;50.360;7.582;2023-04-24T11:41:48;11.40;99.90
21678;DHT22;11000;50.360;7.582;2023-04-24T11:44:10;11.30;99.90
21678;DHT22;11000;50.360;7.582;2023-04-24T11:46:32;11.10;99.90
21678;DHT22;11000;50.360;7.582;2023-04-24T11:48:53;11.00;99.90
21678;DHT22;11000;50.360;7.582;2023-04-24T11:51:14;11.10;99.90
21678;DHT22;11000;50.360;7.582;2023-04-24T11:53:36;11.10;99.90
21678;DHT22;11000;50.360;7.582;2023-04-24T11:55:57;11.10;99.90
21678;DHT22;11000;50.360;7.582;2023-04-24T11:58:22;11.10;99.90
21678;DHT22;11000;50.360;7.582;2023-04-24T12:00:44;11.00;99.90
21678;DHT22;11000;50.360;7.582;2023-04-24T12:03:10;11.10;99.90
21678;DHT22;11000;50.360;7.582;2023-04-24T12:05:32;11.10;99.90
21678;DHT22;11000;50.360;7.582;2023-04-24T12:07:53;11.30;99.90
21678;DHT22;11000;50.360;7.582;2023-04-24T12:10:14;11.50;99.90
21678;DHT22;11000;50.360;7.582;2023-04-24T12:12:35;11.70;99.90
21678;DHT22;11000;50.360;7.582;2023-04-24T12:14:57;11.80;99.90
21678;DHT22;11000;50.360;7.582;2023-04-24T12:17:26;12.00;99.90
21678;DHT22;11000;50.360;7.582;2023-04-24T12:19:48;12.10;99.90
21678;DHT22;11000;50.360;7.582;2023-04-24T12:22:09;12.10;99.90
21678;DHT22;11000;50.360;7.582;2023-04-24T12:24:30;12.10;99.90
21678;DHT22;11000;50.360;7.582;2023-04-24T12:26:51;12.00;99.90
21678;DHT22;11000;50.360;7.582;2023-04-24T12:29:11;12.10;99.90
21678;DHT22;11000;50.360;7.582;2023-04-24T12:31:39;12.10;99.90
21678;DHT22;11000;50.360;7.582;2023-04-24T12:34:00;12.20;99.90
21678;DHT22;11000;50.360;7.582;2023-04-24T12:36:21;12.30;99.90
21678;DHT22;11000;50.360;7.582;2023-04-24T12:38:43;12.20;99.90
21678;DHT22;11000;50.360;7.582;2023-04-24T12:41:08;12.00;99.90
21678;DHT22;11000;50.360;7.582;2023-04-24T12:43:29;12.00;99.90
21678;DHT22;11000;50.360;7.582;2023-04-24T12:45:50;12.10;99.90
21678;DHT22;11000;50.360;7.582;2023-04-24T12:48:11;12.30;99.90
21678;DHT22;11000;50.360;7.582;2023-04-24T12:50:31;12.60;99.90
21678;DHT22;11000;50.360;7.582;2023-04-24T12:52:52;13.00;99.90
21678;DHT22;11000;50.360;7.582;2023-04-24T12:55:12;13.30;99.90
21678;DHT22;11000;50.360;7.582;2023-04-24T12:57:34;13.70;99.90
21678;DHT22;11000;50.360;7.582;2023-04-24T12:59:57;13.80;99.90
21678;DHT22;11000;50.360;7.582;2023-04-24T13:02:18;13.60;99.90
21678;DHT22;11000;50.360;7.582;2023-04-24T13:04:39;13.70;99.90
21678;DHT22;11000;50.360;7.582;2023-04-24T13:06:59;13.70;99.90
21678;DHT22;11000;50.360;7.582;2023-04-24T13:09:20;13.60;99.90
21678;DHT22;11000;50.360;7.582;2023-04-24T13:11:40;13.50;99.90
21678;DHT22;11000;50.360;7.582;2023-04-24T13:14:01;13.30;99.90
21678;DHT22;11000;50.360;7.582;2023-04-24T13:16:22;13.10;99.90
21678;DHT22;11000;50.360;7.582;2023-04-24T13:18:43;13.10;99.90
21678;DHT22;11000;50.360;7.582;2023-04-24T13:21:04;13.00;99.90
21678;DHT22;11000;50.360;7.582;2023-04-24T13:23:26;12.80;99.90
21678;DHT22;11000;50.360;7.582;2023-04-24T13:25:48;12.90;99.90
21678;DHT22;11000;50.360;7.582;2023-04-24T13:28:09;12.90;99.90
21678;DHT22;11000;50.360;7.582;2023-04-24T13:30:31;12.80;99.90
21678;DHT22;11000;50.360;7.582;2023-04-24T13:32:52;12.80;99.90
21678;DHT22;11000;50.360;7.582;2023-04-24T13:35:13;12.80;99.90
21678;DHT22;11000;50.360;7.582;2023-04-24T13:37:33;12.90;99.90
21678;DHT22;11000;50.360;7.582;2023-04-24T13:39:54;12.90;99.90
21678;DHT22;11000;50.360;7.582;2023-04-24T13:42:15;13.00;99.90
21678;DHT22;11000;50.360;7.582;2023-04-24T13:44:36;13.00;99.90
21678;DHT22;11000;50.360;7.582;2023-04-24T13:46:57;13.10;99.90
21678;DHT22;11000;50.360;7.582;2023-04-24T13:49:18;13.20;99.90
21678;DHT22;11000;50.360;7.582;2023-04-24T13:51:39;13.40;99.90
21678;DHT22;11000;50.360;7.582;2023-04-24T13:54:00;13.50;99.90
21678;DHT22;11000;50.360;7.582;2023-04-24T13:56:22;13.60;99.90
21678;DHT22;11000;50.360;7.582;2023-04-24T13:58:43;13.50;99.90
21678;DHT22;11000;50.360;7.582;2023-04-24T14:01:03;13.60;99.90
21678;DHT22;11000;50.360;7.582;2023-04-24T14:03:24;13.50;99.90
21678;DHT22;11000;50.360;7.582;2023-04-24T14:05:44;13.60;99.90
21678;DHT22;11000;50.360;7.582;2023-04-24T14:08:05;13.60;99.90
21678;DHT22;11000;50.360;7.582;2023-04-24T14:10:26;13.50;99.90
21678;DHT22;11000;50.360;7.582;2023-04-24T14:12:47;13.40;99.90
21678;DHT22;11000;50.360;7.582;2023-04-24T14:15:09;13.40;99.90
21678;DHT22;11000;50.360;7.582;2023-04-24T14:17:31;13.30;99.90
21678;DHT22;11000;50.360;7.582;2023-04-24T14:19:54;13.30;99.90
21678;DHT22;11000;50.360;7.582;2023-04-24T14:22:16;13.20;99.90
21678;DHT22;11000;50.360;7.582;2023-04-24T14:24:37;13.20;99.90
21678;DHT22;11000;50.360;7.582;2023-04-24T14:26:57;13.20;99.90
21678;DHT22;11000;50.360;7.582;2023-04-24T14:29:18;13.20;99.90
21678;DHT22;11000;50.360;7.582;2023-04-24T14:31:40;13.20;99.90
21678;DHT22;11000;50.360;7.582;2023-04-24T14:34:01;13.20;99.90
21678;DHT22;11000;50.360;7.582;2023-04-24T14:36:25;13.30;99.90
21678;DHT22;11000;50.360;7.582;2023-04-24T14:38:46;13.40;99.90
21678;DHT22;11000;50.360;7.582;2023-04-24T14:41:08;13.50;99.90
21678;DHT22;11000;50.360;7.582;2023-04-24T14:43:30;13.60;99.90
21678;DHT22;11000;50.360;7.582;2023-04-24T14:45:50;13.70;99.90
21678;DHT22;11000;50.360;7.582;2023-04-24T14:48:11;13.80;99.90
21678;DHT22;11000;50.360;7.582;2023-04-24T14:50:32;13.90;99.90
21678;DHT22;11000;50.360;7.582;2023-04-24T14:52:55;14.00;99.90
21678;DHT22;11000;50.360;7.582;2023-04-24T14:55:17;14.00;99.90
21678;DHT22;11000;50.360;7.582;2023-04-24T14:57:38;14.00;99.90
21678;DHT22;11000;50.360;7.582;2023-04-24T14:59:59;14.10;99.90
21678;DHT22;11000;50.360;7.582;2023-04-24T15:02:20;14.10;99.90
21678;DHT22;11000;50.360;7.582;2023-04-24T15:04:40;14.10;99.90